createdAt,value
2022-11-09T00:00:51.093Z,6.00
2022-11-09T00:03:18.631Z,6.00
2022-11-09T00:05:57.247Z,6.10
2022-11-09T00:08:25.120Z,6.10
2022-11-09T00:10:52.926Z,6.10
2022-11-09T00:13:20.387Z,6.10
2022-11-09T00:15:47.803Z,6.10
2022-11-09T00:18:14.998Z,6.20
2022-11-09T00:20:47.747Z,6.20
2022-11-09T00:23:19.244Z,6.20
2022-11-09T00:25:47.708Z,6.20
2022-11-09T00:28:15.312Z,6.30
2022-11-09T00:30:43.152Z,6.30
2022-11-09T00:33:12.391Z,6.30
2022-11-09T00:35:43.754Z,6.40
2022-11-09T00:38:10.994Z,6.50
2022-11-09T00:40:38.949Z,6.60
2022-11-09T00:43:06.219Z,6.60
2022-11-09T00:45:33.319Z,6.70
2022-11-09T00:48:00.497Z,6.90
2022-11-09T00:50:27.664Z,7.00
2022-11-09T00:52:55.287Z,7.30
2022-11-09T00:55:24.083Z,7.40
2022-11-09T00:57:53.404Z,7.50
2022-11-09T01:00:24.494Z,7.70
2022-11-09T01:02:54.040Z,7.70
2022-11-09T01:05:21.384Z,7.80
2022-11-09T01:07:50.669Z,7.80
2022-11-09T01:10:17.938Z,8.00
2022-11-09T01:12:47.946Z,8.10
2022-11-09T01:15:15.688Z,8.10
2022-11-09T01:17:42.914Z,8.10
2022-11-09T01:20:11.257Z,8.10
2022-11-09T01:22:38.435Z,8.30
2022-11-09T01:25:06.336Z,8.20
2022-11-09T01:27:34.022Z,8.20
2022-11-09T01:30:01.298Z,8.30
2022-11-09T01:32:32.523Z,8.30
2022-11-09T01:34:59.743Z,8.30
2022-11-09T01:37:26.903Z,8.30
2022-11-09T01:39:54.041Z,8.30
2022-11-09T01:42:25.723Z,8.40
2022-11-09T01:45:17.844Z,8.40
2022-11-09T01:48:25.658Z,8.50
2022-11-09T01:50:58.910Z,8.50
2022-11-09T01:53:32.922Z,8.40
2022-11-09T01:56:05.249Z,8.50
2022-11-09T01:58:42.500Z,8.50
2022-11-09T02:01:11.429Z,8.50
2022-11-09T02:03:47.085Z,8.50
2022-11-09T02:06:18.345Z,8.60
2022-11-09T02:08:46.847Z,8.50
2022-11-09T02:11:18.230Z,8.50
2022-11-09T02:13:51.644Z,8.50
2022-11-09T02:16:20.611Z,8.50
2022-11-09T02:19:01.163Z,8.50
2022-11-09T02:21:31.985Z,8.50
2022-11-09T02:24:00.323Z,8.60
2022-11-09T02:26:41.109Z,8.70
2022-11-09T02:29:11.146Z,8.60
2022-11-09T02:31:46.671Z,8.60
2022-11-09T02:34:20.891Z,8.70
2022-11-09T02:36:49.074Z,8.60
2022-11-09T02:39:24.176Z,8.70
2022-11-09T02:41:59.849Z,8.70
2022-11-09T02:44:39.798Z,8.70
2022-11-09T02:47:08.318Z,8.70
2022-11-09T02:49:35.674Z,8.60
2022-11-09T02:52:02.994Z,8.60
2022-11-09T02:54:30.332Z,8.70
2022-11-09T02:56:58.916Z,8.70
2022-11-09T02:59:27.539Z,8.60
2022-11-09T03:01:54.854Z,8.60
2022-11-09T03:04:22.599Z,8.60
2022-11-09T03:06:50.404Z,8.70
2022-11-09T03:09:19.564Z,8.70
2022-11-09T03:11:46.772Z,8.70
2022-11-09T03:14:16.288Z,8.70
2022-11-09T03:16:54.206Z,8.70
2022-11-09T03:19:21.803Z,8.70
2022-11-09T03:21:51.798Z,8.70
2022-11-09T03:24:23.185Z,8.70
2022-11-09T03:26:52.990Z,8.70
2022-11-09T03:29:20.719Z,8.70
2022-11-09T03:31:47.841Z,8.70
2022-11-09T03:34:15.282Z,8.70
2022-11-09T03:36:42.481Z,8.70
2022-11-09T03:39:09.628Z,8.70
2022-11-09T03:41:37.506Z,8.70
2022-11-09T03:44:04.839Z,8.80
2022-11-09T03:46:32.124Z,8.80
2022-11-09T03:48:59.443Z,8.70
2022-11-09T03:51:26.679Z,8.70
2022-11-09T03:53:53.908Z,8.80
2022-11-09T03:56:21.063Z,8.80
2022-11-09T03:58:48.258Z,8.70
2022-11-09T04:01:15.728Z,8.80
2022-11-09T04:03:43.027Z,8.70
2022-11-09T04:06:10.106Z,8.80
2022-11-09T04:08:37.315Z,8.70
2022-11-09T04:11:04.388Z,8.70
2022-11-09T04:13:31.641Z,8.70
2022-11-09T04:15:59.480Z,8.70
2022-11-09T04:18:26.686Z,8.70
2022-11-09T04:20:53.851Z,8.70
2022-11-09T04:23:21.593Z,8.70
2022-11-09T04:25:49.092Z,8.70
2022-11-09T04:28:19.787Z,8.80
2022-11-09T04:30:46.912Z,8.80
2022-11-09T04:33:14.363Z,8.70
2022-11-09T04:35:41.602Z,8.70
2022-11-09T04:38:12.045Z,8.70
2022-11-09T04:40:39.799Z,8.70
2022-11-09T04:43:11.633Z,8.70
2022-11-09T04:45:38.908Z,8.70
2022-11-09T04:48:07.650Z,8.70
2022-11-09T04:50:35.387Z,8.70
2022-11-09T04:53:13.896Z,8.70
2022-11-09T04:55:42.186Z,8.70
2022-11-09T04:58:10.044Z,8.80
2022-11-09T05:00:38.329Z,8.70
2022-11-09T05:03:06.958Z,8.80
2022-11-09T05:05:35.590Z,8.80
2022-11-09T05:08:02.999Z,8.70
2022-11-09T05:10:30.663Z,8.70
2022-11-09T05:13:03.106Z,8.70
2022-11-09T05:15:31.116Z,8.80
2022-11-09T05:17:58.549Z,8.80
2022-11-09T05:20:25.838Z,8.70
2022-11-09T05:23:11.599Z,8.80
2022-11-09T05:25:38.826Z,8.80
2022-11-09T05:28:06.246Z,8.80
2022-11-09T05:30:33.420Z,8.80
2022-11-09T05:33:00.669Z,8.80
2022-11-09T05:35:27.846Z,8.80
2022-11-09T05:37:55.004Z,8.80
2022-11-09T05:40:22.449Z,8.80
2022-11-09T05:42:49.607Z,8.70
2022-11-09T05:45:41.333Z,8.80
2022-11-09T05:48:07.352Z,8.80
2022-11-09T05:50:34.865Z,8.80
2022-11-09T05:53:20.720Z,8.80
2022-11-09T05:55:48.143Z,8.80
2022-11-09T05:58:15.389Z,8.80
2022-11-09T06:00:42.690Z,8.80
2022-11-09T06:03:11.503Z,8.80
2022-11-09T06:05:41.251Z,8.70
2022-11-09T06:08:11.474Z,8.80
2022-11-09T06:10:38.842Z,8.70
2022-11-09T06:13:06.567Z,8.80
2022-11-09T06:15:33.898Z,8.80
2022-11-09T06:18:00.995Z,8.80
2022-11-09T06:20:28.910Z,8.80
2022-11-09T06:23:03.053Z,8.80
2022-11-09T06:25:33.577Z,8.80
2022-11-09T06:28:01.801Z,8.80
2022-11-09T06:30:29.531Z,8.80
2022-11-09T06:33:00.867Z,8.80
2022-11-09T06:35:28.977Z,8.80
2022-11-09T06:37:57.975Z,8.80
2022-11-09T06:40:25.702Z,8.80
2022-11-09T06:42:52.963Z,8.80
2022-11-09T06:45:20.131Z,8.80
2022-11-09T06:47:47.386Z,8.90
2022-11-09T06:50:14.998Z,8.90
2022-11-09T06:52:42.064Z,8.90
2022-11-09T06:55:09.809Z,8.90
2022-11-09T06:57:37.635Z,8.90
2022-11-09T07:00:06.217Z,8.90
2022-11-09T07:02:34.253Z,8.90
2022-11-09T07:05:01.532Z,8.90
2022-11-09T07:07:28.795Z,8.90
2022-11-09T07:09:56.029Z,8.90
2022-11-09T07:12:23.630Z,8.90
2022-11-09T07:14:50.818Z,9.00
2022-11-09T07:17:18.097Z,9.00
2022-11-09T07:20:03.119Z,9.00
2022-11-09T07:22:30.429Z,9.00
2022-11-09T07:24:57.657Z,9.00
2022-11-09T07:27:27.979Z,9.00
2022-11-09T07:29:55.725Z,9.00
2022-11-09T07:32:31.054Z,9.00
2022-11-09T07:35:09.910Z,9.00
2022-11-09T07:37:37.373Z,9.00
2022-11-09T07:40:04.938Z,9.00
2022-11-09T07:42:32.056Z,9.00
2022-11-09T07:44:59.225Z,9.00
2022-11-09T07:47:26.334Z,9.00
2022-11-09T07:49:53.533Z,9.00
2022-11-09T07:52:20.752Z,9.10
2022-11-09T07:54:51.952Z,9.00
2022-11-09T07:57:19.522Z,9.00
2022-11-09T07:59:46.690Z,9.10
2022-11-09T08:02:14.684Z,9.10
2022-11-09T08:04:41.980Z,9.00
2022-11-09T08:07:09.162Z,9.10
2022-11-09T08:09:37.178Z,9.10
2022-11-09T08:12:04.441Z,9.10
2022-11-09T08:14:32.777Z,9.10
2022-11-09T08:16:59.982Z,9.10
2022-11-09T08:19:27.168Z,9.10
2022-11-09T08:21:57.489Z,9.10
2022-11-09T08:24:24.738Z,9.20
2022-11-09T08:26:51.871Z,9.20
2022-11-09T08:29:19.010Z,9.20
2022-11-09T08:31:46.195Z,9.10
2022-11-09T08:34:16.589Z,9.10
2022-11-09T08:36:44.057Z,9.10
2022-11-09T08:39:11.200Z,9.20
2022-11-09T08:41:38.395Z,9.10
2022-11-09T08:44:05.501Z,9.20
2022-11-09T08:46:37.027Z,9.10
2022-11-09T08:49:07.164Z,9.20
2022-11-09T08:51:34.295Z,9.20
2022-11-09T08:54:01.891Z,9.20
2022-11-09T08:56:29.041Z,9.20
2022-11-09T08:58:56.141Z,9.20
2022-11-09T09:01:25.535Z,9.20
2022-11-09T09:03:52.780Z,9.20
2022-11-09T09:06:19.910Z,9.20
2022-11-09T09:08:47.166Z,9.30
2022-11-09T09:11:15.536Z,9.30
2022-11-09T09:13:43.694Z,9.30
2022-11-09T09:16:15.800Z,9.30
2022-11-09T09:18:43.419Z,9.30
2022-11-09T09:21:11.341Z,9.30
2022-11-09T09:23:38.616Z,9.30
2022-11-09T09:26:06.134Z,9.30
2022-11-09T09:28:33.390Z,9.30
2022-11-09T09:31:02.219Z,9.40
2022-11-09T09:33:29.528Z,9.40
2022-11-09T09:35:58.408Z,9.30
2022-11-09T09:38:27.055Z,9.40
2022-11-09T09:41:06.038Z,9.30
2022-11-09T09:43:44.898Z,9.40
2022-11-09T09:46:37.923Z,9.40
2022-11-09T09:49:12.230Z,9.40
2022-11-09T09:51:48.890Z,9.30
2022-11-09T09:54:27.109Z,9.30
2022-11-09T09:56:59.900Z,9.30
2022-11-09T09:59:41.130Z,9.30
2022-11-09T10:02:26.592Z,9.20
2022-11-09T10:04:57.866Z,9.20
2022-11-09T10:08:22.770Z,9.20
2022-11-09T10:11:17.002Z,9.20
2022-11-09T10:14:03.989Z,9.20
2022-11-09T10:16:39.022Z,9.20
2022-11-09T10:19:39.892Z,9.20
2022-11-09T10:22:39.842Z,9.20
2022-11-09T10:25:32.180Z,9.20
2022-11-09T10:28:13.550Z,9.20
2022-11-09T10:30:41.702Z,9.20
2022-11-09T10:33:11.873Z,9.20
2022-11-09T10:35:45.941Z,9.20
2022-11-09T10:38:20.893Z,9.30
2022-11-09T10:41:17.930Z,9.30
2022-11-09T10:44:03.664Z,9.30
2022-11-09T10:47:06.138Z,9.20
2022-11-09T10:50:38.952Z,9.20
2022-11-09T10:53:30.380Z,9.20
2022-11-09T10:56:21.339Z,9.20
2022-11-09T10:59:50.164Z,9.20
2022-11-09T11:02:40.800Z,9.20
2022-11-09T11:05:29.357Z,9.30
2022-11-09T11:08:24.789Z,9.30
2022-11-09T11:11:39.438Z,9.30
2022-11-09T11:14:42.017Z,9.30
2022-11-09T11:17:35.035Z,9.30
2022-11-09T11:20:31.458Z,9.30
2022-11-09T11:23:26.417Z,9.30
2022-11-09T11:26:15.444Z,9.30
2022-11-09T11:29:07.308Z,9.30
2022-11-09T11:31:53.110Z,9.40
2022-11-09T11:34:59.121Z,9.40
2022-11-09T11:38:09.977Z,9.40
2022-11-09T11:41:21.900Z,9.30
2022-11-09T11:44:14.003Z,9.30
2022-11-09T11:47:22.118Z,9.30
2022-11-09T11:50:31.803Z,9.30
2022-11-09T11:53:24.734Z,9.30
2022-11-09T11:56:19.489Z,9.30
2022-11-09T11:59:26.698Z,9.30
2022-11-09T12:02:44.211Z,9.30
2022-11-09T12:06:04.395Z,9.30
2022-11-09T12:09:14.885Z,9.30
2022-11-09T12:12:17.096Z,9.30
2022-11-09T12:15:02.712Z,9.30
2022-11-09T12:18:00.959Z,9.30
2022-11-09T12:21:18.026Z,9.30
2022-11-09T12:24:17.397Z,9.40
2022-11-09T12:27:40.486Z,9.40
2022-11-09T12:30:38.258Z,9.40
2022-11-09T12:33:43.213Z,9.40
2022-11-09T12:36:40.775Z,9.40
2022-11-09T12:40:06.843Z,9.50
2022-11-09T12:43:00.666Z,9.40
2022-11-09T12:45:49.605Z,9.40
2022-11-09T12:48:35.667Z,9.50
2022-11-09T12:51:22.662Z,9.50
2022-11-09T12:54:11.909Z,9.60
2022-11-09T12:56:59.979Z,9.60
2022-11-09T12:59:54.538Z,9.60
2022-11-09T13:02:57.417Z,9.60
2022-11-09T13:05:45.293Z,9.70
2022-11-09T13:08:32.507Z,9.70
2022-11-09T13:11:18.130Z,9.70
2022-11-09T13:14:22.311Z,9.70
2022-11-09T13:17:26.407Z,9.60
2022-11-09T13:20:53.863Z,9.70
2022-11-09T13:26:46.949Z,9.60
2022-11-09T13:29:42.229Z,9.60
2022-11-09T13:32:30.027Z,9.60
2022-11-09T13:35:41.097Z,9.60
2022-11-09T13:38:31.815Z,9.60
2022-11-09T13:41:29.819Z,9.60
2022-11-09T13:44:26.434Z,9.60
2022-11-09T13:47:22.725Z,9.60
2022-11-09T13:50:20.439Z,9.60
2022-11-09T13:53:37.804Z,9.50
2022-11-09T13:56:40.096Z,9.50
2022-11-09T13:59:28.572Z,9.50
2022-11-09T14:02:24.814Z,9.60
2022-11-09T14:05:29.254Z,9.50
2022-11-09T14:08:23.129Z,9.50
2022-11-09T14:11:40.235Z,9.50
2022-11-09T14:15:12.370Z,9.50
2022-11-09T14:18:43.172Z,9.40
2022-11-09T14:21:44.423Z,9.40
2022-11-09T14:24:35.251Z,9.50
2022-11-09T14:27:23.135Z,9.50
2022-11-09T14:30:24.571Z,9.40
2022-11-09T14:33:21.912Z,9.40
2022-11-09T14:36:11.949Z,9.40
2022-11-09T14:39:00.303Z,9.40
2022-11-09T14:41:46.169Z,9.40
2022-11-09T14:44:40.691Z,9.40
2022-11-09T14:47:33.429Z,9.40
2022-11-09T14:50:42.779Z,9.40
2022-11-09T14:53:38.139Z,9.30
2022-11-09T14:56:25.375Z,9.30
2022-11-09T14:59:21.784Z,9.30
2022-11-09T15:02:11.840Z,9.30
2022-11-09T15:05:00.837Z,9.30
2022-11-09T15:07:48.373Z,9.30
2022-11-09T15:10:35.173Z,9.30
2022-11-09T15:13:35.152Z,9.30
2022-11-09T15:16:27.388Z,9.30
2022-11-09T15:19:34.854Z,9.20
2022-11-09T15:22:55.881Z,9.20
2022-11-09T15:25:41.852Z,9.20
2022-11-09T15:28:31.375Z,9.20
2022-11-09T15:31:19.672Z,9.20
2022-11-09T15:34:23.257Z,9.20
2022-11-09T15:37:26.383Z,9.20
2022-11-09T15:40:15.487Z,9.20
2022-11-09T15:43:01.639Z,9.20
2022-11-09T15:45:47.843Z,9.10
2022-11-09T15:48:34.286Z,9.20
2022-11-09T15:51:21.241Z,9.20
2022-11-09T15:54:07.174Z,9.20
2022-11-09T15:56:53.468Z,9.20
2022-11-09T15:59:39.244Z,9.20
2022-11-09T16:02:25.189Z,9.10
2022-11-09T16:05:11.525Z,9.10
2022-11-09T16:07:57.332Z,9.20
2022-11-09T16:10:44.747Z,9.20
2022-11-09T16:13:31.090Z,9.20
2022-11-09T16:16:16.814Z,9.10
2022-11-09T16:19:02.764Z,9.00
2022-11-09T16:21:48.721Z,8.90
2022-11-09T16:24:34.651Z,8.80
2022-11-09T16:27:48.274Z,8.80
2022-11-09T16:30:28.951Z,8.80
2022-11-09T16:33:15.032Z,8.70
2022-11-09T16:36:04.171Z,8.80
2022-11-09T16:38:53.941Z,8.70
2022-11-09T16:41:42.231Z,8.60
2022-11-09T16:44:34.259Z,8.50
2022-11-09T16:47:21.407Z,8.50
2022-11-09T16:50:08.271Z,8.50
2022-11-09T16:52:54.201Z,8.40
2022-11-09T16:55:40.131Z,8.40
2022-11-09T16:58:26.021Z,8.40
2022-11-09T17:01:14.498Z,8.30
2022-11-09T17:04:03.680Z,8.20
2022-11-09T17:06:50.752Z,8.10
2022-11-09T17:09:37.374Z,8.00
2022-11-09T17:12:23.684Z,8.10
2022-11-09T17:15:09.971Z,8.00
2022-11-09T17:17:56.071Z,7.90
2022-11-09T17:20:47.065Z,7.90
2022-11-09T17:23:34.041Z,7.80
2022-11-09T17:26:21.190Z,7.70
2022-11-09T17:29:07.511Z,7.70
2022-11-09T17:31:53.832Z,7.70
2022-11-09T17:34:39.432Z,7.70
2022-11-09T17:37:25.365Z,7.70
2022-11-09T17:40:11.522Z,7.70
2022-11-09T17:42:57.498Z,7.70
2022-11-09T17:45:43.464Z,7.70
2022-11-09T17:48:29.036Z,7.70
2022-11-09T17:51:18.204Z,7.70
2022-11-09T17:54:04.800Z,7.70
2022-11-09T17:56:51.833Z,7.60
2022-11-09T17:59:37.873Z,7.60
2022-11-09T18:02:24.183Z,7.70
2022-11-09T18:05:11.453Z,7.70
2022-11-09T18:07:57.415Z,7.70
2022-11-09T18:10:45.763Z,7.70
2022-11-09T18:13:31.966Z,7.60
2022-11-09T18:16:19.764Z,7.70
2022-11-09T18:19:06.681Z,7.60
2022-11-09T18:21:52.562Z,7.50
2022-11-09T18:24:38.754Z,7.40
2022-11-09T18:27:29.907Z,7.40
2022-11-09T18:30:17.534Z,7.40
2022-11-09T18:33:03.484Z,7.40
2022-11-09T18:35:59.924Z,7.20
2022-11-09T18:38:45.884Z,7.20
2022-11-09T18:41:32.428Z,7.10
2022-11-09T18:44:18.084Z,6.90
2022-11-09T18:47:05.623Z,7.00
2022-11-09T18:49:52.710Z,6.90
2022-11-09T18:52:38.744Z,6.80
2022-11-09T18:55:24.485Z,6.80
2022-11-09T18:58:10.255Z,6.70
2022-11-09T19:01:05.074Z,6.90
2022-11-09T19:03:56.381Z,6.90
2022-11-09T19:06:46.079Z,6.50
2022-11-09T19:09:35.819Z,6.30
2022-11-09T19:12:21.818Z,6.30
2022-11-09T19:15:09.482Z,6.20
2022-11-09T19:17:55.751Z,6.20
2022-11-09T19:20:41.722Z,6.10
2022-11-09T19:23:33.918Z,6.20
2022-11-09T19:26:22.694Z,6.00
2022-11-09T19:29:16.519Z,5.80
2022-11-09T19:32:04.798Z,5.60
2022-11-09T19:34:51.832Z,5.60
2022-11-09T19:37:37.961Z,5.60
2022-11-09T19:40:24.577Z,5.60
2022-11-09T19:43:11.896Z,5.80
2022-11-09T19:45:58.078Z,6.00
2022-11-09T19:48:48.328Z,5.80
2022-11-09T19:51:35.032Z,5.80
2022-11-09T19:54:20.767Z,5.70
2022-11-09T19:57:09.133Z,5.50
2022-11-09T19:59:56.964Z,5.40
2022-11-09T20:02:42.684Z,5.30
2022-11-09T20:05:31.488Z,5.20
2022-11-09T20:08:17.852Z,5.20
2022-11-09T20:11:12.805Z,5.10
2022-11-09T20:13:58.310Z,5.10
2022-11-09T20:16:45.194Z,5.10
2022-11-09T20:19:31.175Z,5.20
2022-11-09T20:22:17.265Z,5.20
2022-11-09T20:25:04.836Z,5.00
2022-11-09T20:27:50.441Z,5.10
2022-11-09T20:30:41.015Z,5.00
2022-11-09T20:33:26.928Z,5.30
2022-11-09T20:36:14.828Z,5.40
2022-11-09T20:39:01.748Z,5.30
2022-11-09T20:41:47.554Z,5.20
2022-11-09T20:44:33.565Z,5.20
2022-11-09T20:47:35.527Z,5.00
2022-11-09T20:50:24.940Z,4.80
2022-11-09T20:53:11.654Z,4.80
2022-11-09T20:55:57.744Z,4.90
2022-11-09T20:58:43.787Z,4.90
2022-11-09T21:01:30.122Z,4.80
2022-11-09T21:04:16.505Z,4.80
2022-11-09T21:07:02.603Z,4.70
2022-11-09T21:09:48.482Z,4.60
2022-11-09T21:12:34.413Z,4.70
2022-11-09T21:15:20.337Z,4.60
2022-11-09T21:18:07.865Z,4.50
2022-11-09T21:20:53.701Z,4.40
2022-11-09T21:23:59.403Z,4.60
2022-11-09T21:27:03.896Z,4.80
2022-11-09T21:29:52.563Z,4.90
2022-11-09T21:32:40.328Z,4.90
2022-11-09T21:35:26.130Z,4.80
2022-11-09T21:38:11.879Z,4.70
2022-11-09T21:41:06.813Z,4.90
2022-11-09T21:43:57.401Z,5.10
2022-11-09T21:46:44.361Z,5.00
2022-11-09T21:49:30.432Z,5.00
2022-11-09T21:52:16.393Z,5.00
2022-11-09T21:55:02.322Z,4.90
2022-11-09T21:57:51.402Z,4.90
2022-11-09T22:00:37.011Z,4.70
2022-11-09T22:03:22.995Z,4.70
2022-11-09T22:06:09.788Z,4.80
2022-11-09T22:08:55.651Z,4.70
2022-11-09T22:12:00.792Z,4.70
2022-11-09T22:15:05.135Z,4.60
2022-11-09T22:17:54.172Z,4.60
2022-11-09T22:20:55.061Z,4.70
2022-11-09T22:23:40.785Z,4.80
2022-11-09T22:26:28.918Z,5.00
2022-11-09T22:29:14.563Z,4.80
2022-11-09T22:32:00.376Z,4.90
2022-11-09T22:34:46.528Z,4.90
2022-11-09T22:37:32.537Z,4.90
2022-11-09T22:40:18.868Z,4.90
2022-11-09T22:43:04.672Z,4.90
2022-11-09T22:45:50.611Z,5.00
2022-11-09T22:48:37.949Z,5.00
2022-11-09T22:51:24.399Z,5.10
2022-11-09T22:54:10.464Z,5.10
2022-11-09T22:56:56.160Z,5.20
2022-11-09T22:59:42.023Z,5.10
2022-11-09T23:02:29.094Z,5.20
2022-11-09T23:05:15.317Z,5.30
2022-11-09T23:08:01.115Z,5.40
2022-11-09T23:10:55.664Z,5.50
2022-11-09T23:13:42.579Z,5.50
2022-11-09T23:16:28.541Z,5.50
2022-11-09T23:19:14.467Z,5.50
2022-11-09T23:22:00.321Z,5.40
2022-11-09T23:25:04.719Z,5.60
2022-11-09T23:27:52.185Z,5.60
2022-11-09T23:30:38.681Z,5.70
2022-11-09T23:33:24.728Z,5.70
2022-11-09T23:36:11.139Z,5.70
2022-11-09T23:38:57.036Z,5.70
2022-11-09T23:41:42.776Z,5.80
2022-11-09T23:44:28.388Z,5.80
2022-11-09T23:47:14.205Z,5.70
2022-11-09T23:49:59.967Z,5.70
2022-11-09T23:52:45.958Z,5.80
2022-11-09T23:55:32.072Z,5.80
2022-11-09T23:58:18.247Z,5.90
